Time;durP1;ratioP1;P1;durP2;ratioP2;P2;SDS_P1;SDS_P2;PMS_P1;PMS_P2;Temp;Humidity;BMP_temperature;BMP_pressure;BME280_temperature;BME280_humidity;BME280_pressure;Samples;Min_cycle;Max_cycle;Signal;HPM_P1;HPM_P2
2021/06/10 00:00:22;;;;;;;;;;;;;;;20.66;58.85;100427.03;5035785;28;764;-57
2021/06/10 00:02:47;;;;;;;;;;;;;;;20.51;55.99;100425.41;5035846;28;1132;-58
2021/06/10 00:05:13;;;;;;;;;;;;;;;20.46;56.79;100428.28;5035386;28;752;-57
2021/06/10 00:07:38;;;;;;;;;;;;;;;20.43;58.95;100423.38;5035532;28;1070;-56
2021/06/10 00:10:08;;;;;;;;;;;;;;;20.71;58.07;100411.50;5035791;28;725;-57
2021/06/10 00:12:34;;;;;;;;;;;;;;;20.34;57.74;100414.16;5035210;28;788;-57
2021/06/10 00:15:00;;;;;;;;;;;;;;;20.14;55.27;100410.69;5001775;28;1301;-57
2021/06/10 00:17:25;;;;;;;;;;;;;;;20.04;55.51;100421.13;5036613;28;1906;-57
2021/06/10 00:19:51;;;;;;;;;;;;;;;20.01;59.70;100422.56;5038716;28;912;-57
2021/06/10 00:22:18;;;;;;;;;;;;;;;20.15;59.23;100423.38;5039129;28;956;-57
2021/06/10 00:24:44;;;;;;;;;;;;;;;20.14;59.08;100409.88;5039108;28;824;-58
2021/06/10 00:27:09;;;;;;;;;;;;;;;20.24;59.87;100415.19;5038487;28;791;-58
2021/06/10 00:29:35;;;;;;;;;;;;;;;20.33;60.25;100413.34;5039053;28;803;-58
2021/06/10 00:32:00;;;;;;;;;;;;;;;20.21;60.50;100410.28;5039056;28;779;-58
2021/06/10 00:34:25;;;;;;;;;;;;;;;20.27;59.75;100409.06;5038894;28;788;-57
2021/06/10 00:36:51;;;;;;;;;;;;;;;20.40;60.58;100410.19;5038756;28;1985;-58
2021/06/10 00:39:16;;;;;;;;;;;;;;;20.40;60.45;100406.59;5038827;28;810;-58
2021/06/10 00:41:42;;;;;;;;;;;;;;;20.41;59.26;100409.06;5038640;28;816;-58
2021/06/10 00:44:07;;;;;;;;;;;;;;;20.14;58.85;100402.41;5038842;28;848;-58
2021/06/10 00:46:33;;;;;;;;;;;;;;;20.20;59.97;100396.78;5038470;28;748;-57
2021/06/10 00:48:58;;;;;;;;;;;;;;;20.35;60.17;100394.53;5038574;28;749;-58
2021/06/10 00:51:24;;;;;;;;;;;;;;;20.20;60.38;100385.75;5038262;28;956;-57
2021/06/10 00:53:49;;;;;;;;;;;;;;;19.79;61.23;100388.19;5038223;28;821;-57
2021/06/10 00:56:15;;;;;;;;;;;;;;;19.52;60.69;100383.44;5038300;28;1918;-58
2021/06/10 00:58:40;;;;;;;;;;;;;;;19.68;61.08;100394.97;5038570;28;844;-58
2021/06/10 01:01:06;;;;;;;;;;;;;;;19.45;61.93;100389.31;5038190;28;796;-58
2021/06/10 01:03:31;;;;;;;;;;;;;;;19.72;61.43;100384.97;5038455;28;1191;-58
2021/06/10 01:05:58;;;;;;;;;;;;;;;19.52;61.67;100385.34;5037887;28;928;-58
2021/06/10 01:08:26;;;;;;;;;;;;;;;19.52;62.26;100379.84;5038201;28;793;-57
2021/06/10 01:11:04;;;;;;;;;;;;;;;19.63;61.58;100384.06;5038248;28;809;-57
2021/06/10 01:13:39;;;;;;;;;;;;;;;19.54;62.42;100375.66;5038539;28;825;-57
2021/06/10 01:16:06;;;;;;;;;;;;;;;19.59;61.76;100378.31;5019797;28;1979;-57
2021/06/10 01:18:31;;;;;;;;;;;;;;;19.43;62.43;100375.03;5038511;28;772;-58
2021/06/10 01:20:56;;;;;;;;;;;;;;;19.64;62.24;100369.13;5020437;28;957;-58
2021/06/10 01:23:25;;;;;;;;;;;;;;;19.42;62.62;100376.16;5036402;28;820;-59
2021/06/10 01:26:02;;;;;;;;;;;;;;;19.53;62.60;100370.44;5036088;28;786;-58
2021/06/10 01:28:28;;;;;;;;;;;;;;;19.49;62.81;100367.50;5037136;28;844;-59
2021/06/10 01:30:55;;;;;;;;;;;;;;;19.59;62.85;100372.00;5036331;28;795;-58
2021/06/10 01:33:39;;;;;;;;;;;;;;;19.72;62.33;100364.88;5036804;28;808;-58
2021/06/10 01:36:09;;;;;;;;;;;;;;;19.79;62.20;100359.75;5037139;28;1909;-59
2021/06/10 01:38:34;;;;;;;;;;;;;;;19.54;62.86;100355.53;5019954;28;796;-58
2021/06/10 01:41:00;;;;;;;;;;;;;;;19.62;62.59;100360.34;5020159;28;760;-58
2021/06/10 01:43:26;;;;;;;;;;;;;;;19.77;62.13;100356.50;5037552;28;966;-58
2021/06/10 01:45:51;;;;;;;;;;;;;;;19.83;62.73;100345.06;5037605;28;753;-58
2021/06/10 01:48:20;;;;;;;;;;;;;;;19.97;62.29;100347.03;5037599;28;828;-58
2021/06/10 01:50:47;;;;;;;;;;;;;;;20.10;62.39;100348.13;5037132;28;1007;-58
2021/06/10 01:53:14;;;;;;;;;;;;;;;20.13;62.23;100347.50;5019636;28;821;-58
2021/06/10 01:55:39;;;;;;;;;;;;;;;20.21;62.14;100346.78;5019853;28;1995;-58
2021/06/10 01:58:05;;;;;;;;;;;;;;;20.09;61.29;100346.50;5019714;28;776;-57
2021/06/10 02:00:30;;;;;;;;;;;;;;;20.24;61.79;100353.66;5019561;28;801;-58
2021/06/10 02:02:56;;;;;;;;;;;;;;;20.20;61.74;100355.38;5019744;28;1179;-58
2021/06/10 02:05:25;;;;;;;;;;;;;;;20.44;61.37;100355.13;5019721;28;995;-58
2021/06/10 02:07:50;;;;;;;;;;;;;;;20.44;61.04;100360.66;5035489;28;968;-57
2021/06/10 02:10:16;;;;;;;;;;;;;;;20.35;60.28;100363.34;5019127;28;848;-58
2021/06/10 02:12:45;;;;;;;;;;;;;;;20.25;58.38;100358.84;5037301;28;768;-58
2021/06/10 02:15:10;;;;;;;;;;;;;;;20.09;57.20;100352.00;5036886;28;776;-58
2021/06/10 02:17:36;;;;;;;;;;;;;;;20.27;59.42;100353.03;5036884;28;1917;-57
2021/06/10 02:20:02;;;;;;;;;;;;;;;20.24;60.60;100342.59;5037253;28;765;-57
2021/06/10 02:22:28;;;;;;;;;;;;;;;20.14;59.88;100351.91;5018600;28;1390;-57
2021/06/10 02:24:54;;;;;;;;;;;;;;;20.08;57.14;100351.22;5037082;28;789;-57
2021/06/10 02:27:19;;;;;;;;;;;;;;;20.23;58.50;100347.31;5035691;28;760;-57
2021/06/10 02:29:44;;;;;;;;;;;;;;;20.29;60.27;100356.31;5036593;28;856;-58
2021/06/10 02:32:10;;;;;;;;;;;;;;;20.28;60.78;100358.22;5036636;28;864;-57
2021/06/10 02:34:36;;;;;;;;;;;;;;;20.36;60.44;100359.47;5036863;28;799;-58
2021/06/10 02:37:01;;;;;;;;;;;;;;;20.49;59.17;100364.13;5035740;28;1977;-59
2021/06/10 02:39:27;;;;;;;;;;;;;;;20.46;58.86;100356.47;5019506;28;780;-59
2021/06/10 02:41:52;;;;;;;;;;;;;;;20.56;58.15;100354.63;5036777;28;805;-58
2021/06/10 02:44:17;;;;;;;;;;;;;;;20.44;59.46;100357.91;5018675;28;800;-58
2021/06/10 02:46:43;;;;;;;;;;;;;;;20.50;60.64;100354.72;5036386;28;821;-58
2021/06/10 02:49:09;;;;;;;;;;;;;;;20.54;60.17;100354.09;5036909;28;777;-58
2021/06/10 02:51:34;;;;;;;;;;;;;;;20.57;58.18;100367.31;4998775;28;945;-58
2021/06/10 02:54:01;;;;;;;;;;;;;;;20.28;56.78;100354.66;5015920;28;776;-58
2021/06/10 02:56:27;;;;;;;;;;;;;;;20.26;56.74;100356.91;5016630;28;1930;-58
2021/06/10 02:58:52;;;;;;;;;;;;;;;20.41;59.06;100362.13;5016819;28;823;-57
2021/06/10 03:01:17;;;;;;;;;;;;;;;20.11;61.21;100358.06;5015229;28;872;-57
2021/06/10 03:03:43;;;;;;;;;;;;;;;20.43;61.01;100373.66;5029701;28;1144;-57
2021/06/10 03:06:08;;;;;;;;;;;;;;;20.41;61.30;100367.66;5017923;28;928;-57
2021/06/10 03:08:34;;;;;;;;;;;;;;;20.47;60.44;100369.16;5034854;28;817;-57
2021/06/10 03:11:00;;;;;;;;;;;;;;;20.51;59.23;100372.13;5035380;28;880;-57
2021/06/10 03:13:25;;;;;;;;;;;;;;;20.61;59.04;100365.56;5036280;28;702;-57
2021/06/10 03:15:51;;;;;;;;;;;;;;;20.63;59.28;100371.56;5018094;28;1906;-57
2021/06/10 03:18:17;;;;;;;;;;;;;;;20.61;59.49;100368.31;5035253;28;859;-57
2021/06/10 03:20:42;;;;;;;;;;;;;;;20.69;59.66;100375.88;5034593;28;1007;-57
2021/06/10 03:23:08;;;;;;;;;;;;;;;20.61;59.85;100369.13;5019013;28;777;-57
2021/06/10 03:25:33;;;;;;;;;;;;;;;20.85;59.45;100374.41;5018695;28;829;-56
2021/06/10 03:27:59;;;;;;;;;;;;;;;20.93;59.20;100369.25;5017683;28;818;-56
2021/06/10 03:30:25;;;;;;;;;;;;;;;20.87;59.71;100362.22;5018644;28;740;-56
2021/06/10 03:32:50;;;;;;;;;;;;;;;20.96;59.36;100363.91;5036269;28;729;-56
2021/06/10 03:35:16;;;;;;;;;;;;;;;20.90;59.54;100367.94;5018360;28;805;-56
2021/06/10 03:37:42;;;;;;;;;;;;;;;21.11;58.92;100365.50;5018342;28;1914;-56
2021/06/10 03:40:08;;;;;;;;;;;;;;;20.96;59.45;100368.66;5035895;28;772;-55
2021/06/10 03:42:34;;;;;;;;;;;;;;;21.01;59.17;100374.03;5035763;28;847;-59
2021/06/10 03:45:00;;;;;;;;;;;;;;;21.08;58.97;100377.16;5034986;28;864;-57
2021/06/10 03:47:25;;;;;;;;;;;;;;;21.02;59.32;100372.91;5034185;28;904;-58
2021/06/10 03:49:51;;;;;;;;;;;;;;;21.11;59.07;100371.03;5036121;28;772;-58
2021/06/10 03:52:16;;;;;;;;;;;;;;;21.02;59.52;100368.19;5036620;28;944;-57
2021/06/10 03:54:42;;;;;;;;;;;;;;;21.16;59.30;100367.31;5039539;28;827;-59
2021/06/10 03:57:08;;;;;;;;;;;;;;;21.06;59.38;100373.09;5039401;28;1918;-58
2021/06/10 03:59:33;;;;;;;;;;;;;;;21.24;58.77;100369.31;5039160;28;832;-62
2021/06/10 04:01:58;;;;;;;;;;;;;;;21.10;59.21;100377.69;5039418;28;1120;-59
2021/06/10 04:04:25;;;;;;;;;;;;;;;20.92;60.15;100373.16;5040072;28;780;-59
2021/06/10 04:06:52;;;;;;;;;;;;;;;20.94;60.08;100377.22;5038940;28;932;-58
2021/06/10 04:09:18;;;;;;;;;;;;;;;21.16;59.23;100373.66;5022138;28;807;-58
2021/06/10 04:11:43;;;;;;;;;;;;;;;21.36;58.69;100379.81;5039541;28;775;-59
2021/06/10 04:14:09;;;;;;;;;;;;;;;21.20;59.07;100374.66;5038680;28;755;-60
2021/06/10 04:16:34;;;;;;;;;;;;;;;21.17;59.34;100375.28;5039113;28;1917;-59
2021/06/10 04:18:59;;;;;;;;;;;;;;;21.19;59.12;100377.75;5039420;28;825;-59
2021/06/10 04:21:25;;;;;;;;;;;;;;;;;;5038227;28;1011;-59
2021/06/10 04:23:50;;;;;;;;;;;;;;;20.84;60.35;100371.94;5039055;28;483;-60
2021/06/10 04:26:16;;;;;;;;;;;;;;;20.49;60.59;100371.59;5036362;28;889;-62
2021/06/10 04:28:44;;;;;;;;;;;;;;;20.46;59.41;100363.94;5037568;28;1004;-63
2021/06/10 04:31:10;;;;;;;;;;;;;;;20.31;59.22;100365.09;5022107;28;745;-63
2021/06/10 04:33:36;;;;;;;;;;;;;;;20.29;58.75;100364.59;5036133;28;877;-62
2021/06/10 04:36:01;;;;;;;;;;;;;;;20.03;59.21;100364.28;5037694;28;1914;-62
2021/06/10 04:38:27;;;;;;;;;;;;;;;19.97;59.18;100366.34;5038669;28;834;-62
2021/06/10 04:40:52;;;;;;;;;;;;;;;19.86;58.89;100359.38;5038695;28;946;-61
2021/06/10 04:43:18;;;;;;;;;;;;;;;19.85;58.27;100369.59;5038605;28;823;-61
2021/06/10 04:45:43;;;;;;;;;;;;;;;19.87;58.24;100370.13;5038497;28;1108;-63
2021/06/10 04:48:08;;;;;;;;;;;;;;;19.89;58.00;100358.78;5038433;28;775;-63
2021/06/10 04:50:35;;;;;;;;;;;;;;;19.85;58.17;100363.25;5037486;28;842;-61
2021/06/10 04:53:00;;;;;;;;;;;;;;;19.72;59.53;100357.41;5038571;28;760;-62
2021/06/10 04:55:26;;;;;;;;;;;;;;;19.92;61.16;100360.91;5039139;28;1979;-59
2021/06/10 04:57:51;;;;;;;;;;;;;;;20.13;61.81;100356.63;5038408;28;760;-61
2021/06/10 05:00:17;;;;;;;;;;;;;;;20.26;62.16;100360.50;5039008;28;870;-60
2021/06/10 05:02:42;;;;;;;;;;;;;;;20.34;61.83;100364.47;5038549;28;1187;-61
2021/06/10 05:05:08;;;;;;;;;;;;;;;20.35;61.03;100366.09;5038291;28;835;-61
2021/06/10 05:07:34;;;;;;;;;;;;;;;20.26;60.46;100367.94;5038095;28;928;-59
2021/06/10 05:09:59;;;;;;;;;;;;;;;20.47;58.95;100358.09;5038266;28;771;-59
2021/06/10 05:12:24;;;;;;;;;;;;;;;20.45;58.47;100360.34;5038305;28;792;-60
2021/06/10 05:14:50;;;;;;;;;;;;;;;20.36;58.27;100362.22;5038793;28;776;-60
2021/06/10 05:17:15;;;;;;;;;;;;;;;20.38;57.75;100365.47;5036882;28;1983;-59
2021/06/10 05:19:41;;;;;;;;;;;;;;;20.47;57.36;100373.88;5038129;28;847;-61
2021/06/10 05:22:06;;;;;;;;;;;;;;;20.52;58.02;100368.22;5038047;28;1011;-61
2021/06/10 05:24:32;;;;;;;;;;;;;;;20.40;60.56;100381.72;5020386;28;760;-62
2021/06/10 05:26:57;;;;;;;;;;;;;;;20.47;61.20;100380.19;5038076;28;799;-61
2021/06/10 05:29:23;;;;;;;;;;;;;;;20.45;61.17;100381.63;5037927;28;795;-61
2021/06/10 05:31:48;;;;;;;;;;;;;;;20.64;59.57;100387.03;5038203;28;748;-60
2021/06/10 05:34:14;;;;;;;;;;;;;;;20.58;58.91;100386.31;5037613;28;807;-61
2021/06/10 05:36:39;;;;;;;;;;;;;;;20.67;58.23;100384.47;5035681;28;1961;-59
2021/06/10 05:39:05;;;;;;;;;;;;;;;20.52;58.37;100387.53;5037850;28;826;-59
2021/06/10 05:41:30;;;;;;;;;;;;;;;20.55;58.08;100386.91;5037819;28;716;-59
2021/06/10 05:43:56;;;;;;;;;;;;;;;20.64;57.78;100390.59;5037674;28;744;-58
2021/06/10 05:46:22;;;;;;;;;;;;;;;20.59;58.58;100384.38;5037760;28;822;-59
2021/06/10 05:48:48;;;;;;;;;;;;;;;20.61;59.18;100382.13;5037074;28;1130;-58
2021/06/10 05:51:13;;;;;;;;;;;;;;;20.52;60.07;100380.09;5036930;28;976;-60
2021/06/10 05:53:38;;;;;;;;;;;;;;;20.18;60.28;100377.78;5037775;28;795;-58
2021/06/10 05:56:04;;;;;;;;;;;;;;;20.58;60.57;100385.50;5037716;28;1922;-62
2021/06/10 05:58:29;;;;;;;;;;;;;;;20.74;60.85;100394.31;5037549;28;723;-58
2021/06/10 06:00:55;;;;;;;;;;;;;;;20.96;60.51;100388.78;5037882;28;771;-59
2021/06/10 06:03:21;;;;;;;;;;;;;;;21.02;60.44;100386.72;5037341;28;1306;-59
2021/06/10 06:05:47;;;;;;;;;;;;;;;21.00;60.61;100395.34;5036828;28;928;-60
2021/06/10 06:08:13;;;;;;;;;;;;;;;20.83;60.67;100398.78;5037735;28;748;-59
2021/06/10 06:10:39;;;;;;;;;;;;;;;20.89;59.42;100401.41;5037152;28;751;-58
2021/06/10 06:13:04;;;;;;;;;;;;;;;20.84;58.24;100400.38;5037072;28;807;-57
2021/06/10 06:15:30;;;;;;;;;;;;;;;20.84;57.25;100411.44;5036689;28;1913;-61
2021/06/10 06:17:55;;;;;;;;;;;;;;;20.67;57.12;100411.25;5036563;28;1041;-59
2021/06/10 06:20:21;;;;;;;;;;;;;;;20.64;56.84;100412.69;5037203;28;772;-59
2021/06/10 06:22:47;;;;;;;;;;;;;;;20.61;58.59;100407.78;5037022;28;955;-60
2021/06/10 06:25:13;;;;;;;;;;;;;;;20.65;60.82;100410.75;5036591;28;790;-62
2021/06/10 06:27:39;;;;;;;;;;;;;;;20.77;61.97;100408.28;5018782;28;824;-57
2021/06/10 06:30:05;;;;;;;;;;;;;;;20.79;61.81;100414.34;5037622;28;824;-57
2021/06/10 06:32:30;;;;;;;;;;;;;;;20.98;61.31;100410.59;5037219;28;892;-55
2021/06/10 06:34:55;;;;;;;;;;;;;;;21.03;57.76;100410.47;5035391;28;1176;-61
2021/06/10 06:37:21;;;;;;;;;;;;;;;20.68;54.69;100405.47;5036337;28;1918;-59
2021/06/10 06:39:46;;;;;;;;;;;;;;;20.47;51.65;100405.06;5036911;28;755;-61
2021/06/10 06:42:12;;;;;;;;;;;;;;;19.97;55.12;100413.25;5036609;28;752;-60
2021/06/10 06:44:37;;;;;;;;;;;;;;;19.97;58.91;100416.81;5037051;28;776;-63
2021/06/10 06:47:03;;;;;;;;;;;;;;;20.32;60.29;100422.75;5036589;28;516;-60
2021/06/10 06:49:28;;;;;;;;;;;;;;;19.99;62.19;100411.81;5036491;28;815;-60
2021/06/10 06:51:54;;;;;;;;;;;;;;;20.06;62.23;100419.69;5035940;28;952;-59
2021/06/10 06:54:19;;;;;;;;;;;;;;;19.94;63.25;100419.38;5036697;28;804;-60
2021/06/10 06:56:45;;;;;;;;;;;;;;;20.09;62.79;100418.25;5036140;28;1967;-61
2021/06/10 06:59:11;;;;;;;;;;;;;;;20.13;61.19;100420.13;5018609;28;1322;-59
2021/06/10 07:01:36;;;;;;;;;;;;;;;20.09;60.81;100423.78;5036418;28;736;-61
2021/06/10 07:04:01;;;;;;;;;;;;;;;20.26;61.76;100424.00;5036160;28;1152;-63
2021/06/10 07:06:27;;;;;;;;;;;;;;;20.49;62.60;100429.59;5035942;28;937;-61
2021/06/10 07:08:52;;;;;;;;;;;;;;;20.93;61.16;100432.81;5018687;28;1223;-60
2021/06/10 07:11:18;;;;;;;;;;;;;;;20.76;61.12;100431.53;5036213;28;918;-60
2021/06/10 07:13:43;;;;;;;;;;;;;;;20.77;59.28;100433.16;5036020;28;764;-63
2021/06/10 07:16:09;;;;;;;;;;;;;;;20.77;57.55;100438.69;5036191;28;1910;-63
2021/06/10 07:18:35;;;;;;;;;;;;;;;20.79;55.18;100435.59;5036162;28;820;-61
2021/06/10 07:21:01;;;;;;;;;;;;;;;20.51;54.37;100436.47;5035757;28;1034;-62
2021/06/10 07:23:26;;;;;;;;;;;;;;;20.45;56.63;100443.19;5036375;28;831;-60
2021/06/10 07:25:52;;;;;;;;;;;;;;;20.49;58.59;100440.66;5035838;28;792;-61
2021/06/10 07:28:17;;;;;;;;;;;;;;;20.65;59.73;100444.72;5039138;28;743;-60
2021/06/10 07:30:43;;;;;;;;;;;;;;;20.65;60.91;100447.50;5040440;28;803;-67
2021/06/10 07:33:08;;;;;;;;;;;;;;;20.84;61.30;100450.13;5039803;28;732;-68
2021/06/10 07:35:34;;;;;;;;;;;;;;;20.76;62.19;100448.13;5039628;28;1980;-63
2021/06/10 07:38:00;;;;;;;;;;;;;;;21.00;61.75;100452.56;5022795;28;740;-60
2021/06/10 07:40:25;;;;;;;;;;;;;;;21.20;61.98;100448.50;5039981;28;822;-41
2021/06/10 07:42:51;;;;;;;;;;;;;;;21.38;60.05;100446.69;5040309;28;799;-47
2021/06/10 07:45:16;;;;;;;;;;;;;;;21.18;60.10;100448.81;5022333;28;1096;-60
2021/06/10 07:47:42;;;;;;;;;;;;;;;21.24;58.92;100446.75;5021711;28;1108;-49
2021/06/10 07:50:07;;;;;;;;;;;;;;;21.30;56.98;100450.22;5022171;28;1391;-60
2021/06/10 07:52:33;;;;;;;;;;;;;;;21.33;55.60;100438.50;5039806;28;948;-47
2021/06/10 07:54:58;;;;;;;;;;;;;;;21.13;55.68;100435.09;5038944;28;740;-62
2021/06/10 07:57:24;;;;;;;;;;;;;;;21.23;54.48;100438.78;5039772;28;1906;-58
2021/06/10 07:59:50;;;;;;;;;;;;;;;21.15;54.01;100443.94;5039657;28;796;-56
2021/06/10 08:02:15;;;;;;;;;;;;;;;20.79;54.31;100453.03;5039072;28;1096;-60
2021/06/10 08:04:40;;;;;;;;;;;;;;;20.95;54.80;100447.16;5039664;28;803;-48
2021/06/10 08:07:06;;;;;;;;;;;;;;;21.04;57.52;100448.03;5039244;28;987;-44
2021/06/10 08:09:34;;;;;;;;;;;;;;;21.26;59.42;100449.19;5038698;28;764;-62
2021/06/10 08:12:01;;;;;;;;;;;;;;;21.44;59.78;100450.97;5039512;28;877;-40
2021/06/10 08:14:27;;;;;;;;;;;;;;;21.55;59.00;100448.78;5027472;28;1451;-59
2021/06/10 08:16:53;;;;;;;;;;;;;;;21.58;57.96;100458.41;5017617;28;1906;-60
2021/06/10 08:19:19;;;;;;;;;;;;;;;21.28;56.97;100463.50;5014700;28;1164;-49
2021/06/10 08:21:44;;;;;;;;;;;;;;;21.20;54.50;100463.13;5033287;28;833;-48
2021/06/10 08:24:11;;;;;;;;;;;;;;;21.05;52.74;100471.78;5038136;28;775;-40
2021/06/10 08:26:37;;;;;;;;;;;;;;;21.01;53.44;100476.31;5038195;28;736;-60
2021/06/10 08:29:02;;;;;;;;;;;;;;;21.01;55.98;100476.31;5038445;28;740;-42
2021/06/10 08:31:28;;;;;;;;;;;;;;;21.15;57.30;100468.81;5038086;28;776;-47
2021/06/10 08:33:53;;;;;;;;;;;;;;;21.31;57.86;100468.44;5038704;28;788;-39
2021/06/10 08:36:21;;;;;;;;;;;;;;;21.36;58.54;100477.44;5037757;28;1906;-39
2021/06/10 08:38:46;;;;;;;;;;;;;;;21.42;59.22;100469.00;5020099;28;875;-41
2021/06/10 08:41:12;;;;;;;;;;;;;;;21.46;59.56;100473.59;5038085;28;811;-49
2021/06/10 08:43:37;;;;;;;;;;;;;;;21.47;60.17;100471.66;5039376;28;780;-53
2021/06/10 08:46:04;;;;;;;;;;;;;;;21.37;60.34;100478.25;5037989;28;859;-41
2021/06/10 08:48:32;;;;;;;;;;;;;;;21.00;60.15;100480.22;5038500;28;787;-41
2021/06/10 08:50:58;;;;;;;;;;;;;;;20.65;59.21;100482.56;5037317;28;1022;-50
2021/06/10 08:53:23;;;;;;;;;;;;;;;20.50;58.13;100479.00;5038056;28;830;-41
2021/06/10 08:55:49;;;;;;;;;;;;;;;20.18;57.00;100471.63;5038693;28;1906;-41
2021/06/10 08:58:15;;;;;;;;;;;;;;;19.96;55.98;100488.88;5037947;28;752;-57
2021/06/10 09:00:40;;;;;;;;;;;;;;;19.58;55.65;100488.94;5037276;28;792;-58
2021/06/10 09:03:07;;;;;;;;;;;;;;;19.65;55.63;100489.38;5038109;28;1144;-57
2021/06/10 09:05:32;;;;;;;;;;;;;;;19.73;56.38;100491.44;5037439;28;999;-41
2021/06/10 09:07:58;;;;;;;;;;;;;;;19.89;57.30;100485.69;5038100;28;811;-40
2021/06/10 09:10:28;;;;;;;;;;;;;;;19.91;58.17;100488.97;5037683;28;787;-43
2021/06/10 09:13:00;;;;;;;;;;;;;;;20.07;59.05;100500.56;5037493;28;566;-60
2021/06/10 09:15:26;;;;;;;;;;;;;;;20.37;60.34;100495.56;5037613;28;756;-41
2021/06/10 09:17:54;;;;;;;;;;;;;;;20.47;61.19;100498.97;5037431;28;1914;-42
2021/06/10 09:20:19;;;;;;;;;;;;;;;20.72;61.32;100494.09;5037464;28;780;-51
2021/06/10 09:22:45;;;;;;;;;;;;;;;20.75;61.85;100495.38;5036862;28;940;-42
2021/06/10 09:25:11;;;;;;;;;;;;;;;20.86;61.99;100488.53;5020371;28;1119;-43
2021/06/10 09:27:56;;;;;;;;;;;;;;;21.04;61.69;100481.19;5037413;28;522;-53
2021/06/10 09:30:30;;;;;;;;;;;;;;;20.85;62.77;100489.66;5037171;28;747;-42
2021/06/10 09:32:56;;;;;;;;;;;;;;;20.98;62.55;100485.22;5036760;28;813;-46
2021/06/10 09:35:28;;;;;;;;;;;;;;;20.98;62.33;100487.97;5037734;28;818;-54
2021/06/10 09:38:01;;;;;;;;;;;;;;;21.20;61.47;100482.50;5037079;28;1902;-58
2021/06/10 09:40:28;;;;;;;;;;;;;;;21.31;61.27;100485.84;5036888;28;775;-61
2021/06/10 09:42:54;;;;;;;;;;;;;;;21.41;60.51;100484.78;5036638;28;795;-49
2021/06/10 09:45:20;;;;;;;;;;;;;;;21.34;60.78;100487.16;5036435;28;803;-43
2021/06/10 09:47:47;;;;;;;;;;;;;;;21.43;60.45;100482.50;5037095;28;803;-58
2021/06/10 09:50:20;;;;;;;;;;;;;;;21.42;60.24;100485.59;5018872;28;1476;-51
2021/06/10 09:52:59;;;;;;;;;;;;;;;21.49;59.80;100481.28;5035098;28;1015;-60
2021/06/10 09:55:45;;;;;;;;;;;;;;;21.58;59.47;100475.81;5035968;28;1181;-51
2021/06/10 09:58:14;;;;;;;;;;;;;;;21.51;59.35;100472.66;5019297;28;1104;-43
2021/06/10 10:00:45;;;;;;;;;;;;;;;21.58;59.17;100466.72;5036500;28;787;-45
2021/06/10 10:03:15;;;;;;;;;;;;;;;21.56;59.37;100478.09;5036225;28;1168;-51
2021/06/10 10:05:40;;;;;;;;;;;;;;;21.50;59.18;100474.63;5018780;28;881;-61
2021/06/10 10:08:06;;;;;;;;;;;;;;;21.19;59.07;100475.31;5036465;28;771;-61
2021/06/10 10:10:32;;;;;;;;;;;;;;;21.40;59.60;100471.28;5036650;28;825;-62
2021/06/10 10:12:58;;;;;;;;;;;;;;;21.35;59.68;100472.22;5019193;28;796;-60
2021/06/10 10:15:24;;;;;;;;;;;;;;;21.44;59.20;100473.09;5035600;28;812;-59
2021/06/10 10:17:49;;;;;;;;;;;;;;;21.54;58.73;100466.50;5018835;28;1918;-57
2021/06/10 10:20:17;;;;;;;;;;;;;;;21.40;59.44;100466.53;5019013;28;788;-60
2021/06/10 10:22:43;;;;;;;;;;;;;;;21.44;59.11;100475.03;5018812;28;1007;-44
2021/06/10 10:25:08;;;;;;;;;;;;;;;21.50;58.89;100474.63;5035858;28;1513;-41
2021/06/10 10:27:34;;;;;;;;;;;;;;;21.53;58.76;100465.72;5036500;28;820;-40
2021/06/10 10:30:00;;;;;;;;;;;;;;;21.57;58.85;100465.06;5036001;28;740;-43
2021/06/10 10:32:28;;;;;;;;;;;;;;;21.65;58.57;100467.09;5036531;28;788;-40
2021/06/10 10:34:54;;;;;;;;;;;;;;;21.57;58.61;100465.06;5036204;28;771;-61
2021/06/10 10:37:20;;;;;;;;;;;;;;;21.72;58.15;100456.38;5035264;28;1917;-44
2021/06/10 10:39:46;;;;;;;;;;;;;;;21.74;58.07;100467.13;5035312;28;855;-42
2021/06/10 10:42:21;;;;;;;;;;;;;;;21.60;58.39;100475.50;5035906;28;794;-46
2021/06/10 10:44:46;;;;;;;;;;;;;;;21.28;59.36;100482.88;5017764;28;1328;-60
2021/06/10 10:47:13;;;;;;;;;;;;;;;21.05;59.18;100487.56;5035607;28;788;-61
2021/06/10 10:49:40;;;;;;;;;;;;;;;20.77;59.10;100480.13;5035355;28;1099;-60
2021/06/10 10:52:14;;;;;;;;;;;;;;;20.82;58.83;100473.69;5034821;28;1091;-50
2021/06/10 10:54:40;;;;;;;;;;;;;;;20.51;58.87;100472.38;5035696;28;880;-45
2021/06/10 10:57:05;;;;;;;;;;;;;;;20.48;58.24;100470.22;5035465;28;1980;-54
2021/06/10 10:59:40;;;;;;;;;;;;;;;20.38;58.07;100473.19;5035842;28;775;-59
2021/06/10 11:02:06;;;;;;;;;;;;;;;20.27;58.02;100463.47;5036106;28;1191;-39
2021/06/10 11:04:47;;;;;;;;;;;;;;;20.16;58.07;100455.38;5035693;28;796;-60
2021/06/10 11:07:31;;;;;;;;;;;;;;;20.17;57.90;100458.94;5034840;28;940;-61
2021/06/10 11:09:56;;;;;;;;;;;;;;;20.33;58.70;100451.22;5035676;28;748;-61
2021/06/10 11:12:48;;;;;;;;;;;;;;;20.41;59.89;100458.78;5035474;28;744;-61
2021/06/10 11:15:23;;;;;;;;;;;;;;;20.26;59.90;100457.13;5033773;28;1139;-63
2021/06/10 11:17:50;;;;;;;;;;;;;;;20.33;60.20;100445.69;5032907;28;1918;-40
2021/06/10 11:20:17;;;;;;;;;;;;;;;20.65;61.06;100446.66;5035770;28;1117;-40
2021/06/10 11:22:46;;;;;;;;;;;;;;;20.83;61.85;100443.00;5035095;28;1000;-42
2021/06/10 11:25:35;;;;;;;;;;;;;;;20.77;61.89;100444.22;5015287;28;860;-41
2021/06/10 11:28:08;;;;;;;;;;;;;;;20.90;60.51;100452.78;5015557;28;1044;-42
2021/06/10 11:30:35;;;;;;;;;;;;;;;20.95;59.46;100452.69;5015351;28;816;-61
2021/06/10 11:33:07;;;;;;;;;;;;;;;21.02;58.95;100461.38;5015544;28;818;-43
2021/06/10 11:35:36;;;;;;;;;;;;;;;20.85;59.01;100457.31;5013444;28;960;-50
2021/06/10 11:38:09;;;;;;;;;;;;;;;20.54;59.71;100456.28;5004831;28;1914;-53
2021/06/10 11:40:34;;;;;;;;;;;;;;;20.26;59.39;100457.13;5015009;28;771;-59
2021/06/10 11:43:03;;;;;;;;;;;;;;;20.14;60.13;100449.34;5015510;28;800;-41
2021/06/10 11:45:28;;;;;;;;;;;;;;;20.18;59.69;100450.38;5015390;28;759;-49
2021/06/10 11:47:54;;;;;;;;;;;;;;;19.91;60.61;100455.84;5015164;28;808;-59
2021/06/10 11:50:27;;;;;;;;;;;;;;;20.15;59.34;100453.75;5015393;28;819;-41
2021/06/10 11:52:55;;;;;;;;;;;;;;;20.00;59.90;100454.84;4995645;28;900;-43
2021/06/10 11:55:21;;;;;;;;;;;;;;;19.97;59.68;100451.88;4995563;28;816;-44
2021/06/10 11:57:54;;;;;;;;;;;;;;;20.15;59.53;100456.50;4995307;28;1910;-41
2021/06/10 12:00:24;;;;;;;;;;;;;;;20.27;59.10;100463.47;4995118;28;776;-43
2021/06/10 12:02:53;;;;;;;;;;;;;;;20.10;59.88;100473.16;4990015;28;873;-42
2021/06/10 12:05:20;;;;;;;;;;;;;;;20.15;59.75;100477.78;5014387;28;562;-40
2021/06/10 12:07:47;;;;;;;;;;;;;;;20.11;59.97;100474.00;5014271;28;924;-41
2021/06/10 12:10:20;;;;;;;;;;;;;;;19.86;60.70;100472.50;5014798;28;787;-56
2021/06/10 12:12:47;;;;;;;;;;;;;;;19.79;61.07;100475.63;5015485;28;792;-55
2021/06/10 12:15:15;;;;;;;;;;;;;;;20.11;60.24;100476.75;5018158;28;799;-43
2021/06/10 12:17:50;;;;;;;;;;;;;;;19.88;60.20;100486.81;5018698;28;1918;-58
2021/06/10 12:20:19;;;;;;;;;;;;;;;19.72;61.68;100492.56;5018798;28;781;-57
2021/06/10 12:22:44;;;;;;;;;;;;;;;19.79;61.28;100501.31;4999906;28;1363;-59
2021/06/10 12:25:13;;;;;;;;;;;;;;;19.83;61.40;100516.13;5016367;28;976;-46
2021/06/10 12:27:39;;;;;;;;;;;;;;;19.82;61.43;100524.72;5023172;28;885;-58
2021/06/10 12:30:19;;;;;;;;;;;;;;;19.77;61.07;100533.88;5018085;28;977;-53
2021/06/10 12:32:44;;;;;;;;;;;;;;;19.78;59.13;100512.59;5038363;28;826;-52
2021/06/10 12:35:10;;;;;;;;;;;;;;;19.53;58.97;100502.81;5038035;28;752;-62
2021/06/10 12:37:35;;;;;;;;;;;;;;;19.71;59.19;100499.19;5002499;28;1985;-41
2021/06/10 12:40:01;;;;;;;;;;;;;;;19.53;60.08;100508.31;5018561;28;840;-56
2021/06/10 12:42:27;;;;;;;;;;;;;;;19.68;59.06;100530.16;5018486;28;746;-43
2021/06/10 12:44:52;;;;;;;;;;;;;;;19.77;59.48;100563.41;5000751;28;1360;-41
2021/06/10 12:47:29;;;;;;;;;;;;;;;19.46;59.62;100577.66;5006279;28;1111;-48
2021/06/10 12:49:55;;;;;;;;;;;;;;;20.07;58.80;100586.13;4998317;28;796;-37
2021/06/10 12:52:21;;;;;;;;;;;;;;;20.48;57.93;100579.88;5013264;28;992;-56